createdAt,value
2019-05-05T00:00:32.060Z,74.84
2019-05-05T00:04:54.455Z,74.75
2019-05-05T00:09:14.830Z,74.59
2019-05-05T00:13:35.284Z,75.09
2019-05-05T00:17:55.885Z,73.97
2019-05-05T00:22:16.577Z,74.86
2019-05-05T00:26:37.645Z,74.53
2019-05-05T00:30:58.083Z,74.68
2019-05-05T00:35:18.728Z,74.63
2019-05-05T00:39:39.688Z,74.17
2019-05-05T00:44:00.813Z,73.75
2019-05-05T00:48:21.881Z,73.67
2019-05-05T00:52:44.630Z,73.75
2019-05-05T00:57:04.686Z,73.15
2019-05-05T01:01:25.460Z,72.78
2019-05-05T01:05:46.552Z,73.61
2019-05-05T01:10:07.392Z,73.22
2019-05-05T01:14:28.095Z,73.03
2019-05-05T01:18:49.201Z,73.01
2019-05-05T01:23:10.103Z,73.09
2019-05-05T01:27:30.424Z,73.11
2019-05-05T01:31:51.478Z,73.86
2019-05-05T01:36:12.039Z,73.78
2019-05-05T01:40:32.455Z,73.52
2019-05-05T01:44:55.147Z,73.48
2019-05-05T01:49:15.691Z,73.70
2019-05-05T01:53:36.114Z,73.47
2019-05-05T01:57:57.681Z,73.68
2019-05-05T02:02:18.119Z,74.06
2019-05-05T02:06:39.175Z,73.66
2019-05-05T02:10:59.818Z,73.57
2019-05-05T02:15:21.862Z,73.82
2019-05-05T02:19:44.332Z,73.67
2019-05-05T02:24:05.285Z,73.37
2019-05-05T02:28:26.273Z,73.01
2019-05-05T02:32:46.794Z,73.19
2019-05-05T02:37:06.919Z,73.16
2019-05-05T02:41:28.116Z,73.23
2019-05-05T02:45:58.226Z,73.43
2019-05-05T02:50:19.489Z,73.17
2019-05-05T02:54:40.675Z,72.79
2019-05-05T02:59:04.424Z,73.31
2019-05-05T03:03:24.706Z,73.62
2019-05-05T03:07:45.655Z,73.79
2019-05-05T03:12:10.814Z,74.42
2019-05-05T03:16:35.033Z,74.38
2019-05-05T03:21:04.355Z,73.74
2019-05-05T03:25:18.053Z,73.71
2019-05-05T03:29:38.836Z,73.99
2019-05-05T03:34:00.538Z,74.33
2019-05-05T03:38:21.202Z,75.23
2019-05-05T03:42:41.612Z,74.97
2019-05-05T03:47:03.549Z,74.04
2019-05-05T03:51:24.332Z,73.83
2019-05-05T03:55:45.450Z,73.69
2019-05-05T04:00:07.382Z,73.78
2019-05-05T04:04:27.983Z,73.67
2019-05-05T04:08:48.442Z,73.95
2019-05-05T04:13:09.835Z,74.16
2019-05-05T04:17:30.590Z,73.70
2019-05-05T04:21:51.005Z,73.80
2019-05-05T04:26:11.591Z,73.68
2019-05-05T04:30:33.837Z,73.84
2019-05-05T04:34:54.917Z,73.55
2019-05-05T04:39:15.784Z,73.51
2019-05-05T04:43:36.400Z,73.11
2019-05-05T04:47:57.189Z,72.92
2019-05-05T04:52:17.798Z,73.20
2019-05-05T04:56:39.027Z,73.06
2019-05-05T05:00:59.575Z,73.51
2019-05-05T05:05:20.020Z,73.28
2019-05-05T05:09:40.757Z,73.16
2019-05-05T05:14:03.741Z,72.86
2019-05-05T05:18:24.649Z,73.04
2019-05-05T05:22:45.366Z,72.92
2019-05-05T05:27:05.520Z,73.00
2019-05-05T05:31:26.190Z,72.48
2019-05-05T05:35:46.799Z,72.21
2019-05-05T05:40:07.565Z,72.18
2019-05-05T05:44:28.312Z,71.09
2019-05-05T05:48:48.562Z,70.36
2019-05-05T05:53:09.131Z,70.71
2019-05-05T05:57:31.370Z,69.86
2019-05-05T06:02:06.650Z,69.78
2019-05-05T06:06:14.704Z,69.61
2019-05-05T06:10:35.220Z,69.85
2019-05-05T06:14:56.065Z,69.89
2019-05-05T06:19:16.253Z,69.74
2019-05-05T06:23:37.588Z,68.99
2019-05-05T06:27:58.209Z,68.54
2019-05-05T06:32:18.279Z,69.53
2019-05-05T06:36:38.567Z,69.47
2019-05-05T06:40:59.077Z,69.96
2019-05-05T06:45:20.124Z,69.30
2019-05-05T06:49:40.280Z,68.08
2019-05-05T06:54:01.627Z,68.83
2019-05-05T06:58:24.211Z,69.28
2019-05-05T07:02:44.580Z,68.94
2019-05-05T07:07:05.662Z,70.18
2019-05-05T07:11:26.629Z,70.88
2019-05-05T07:15:51.497Z,71.27
2019-05-05T07:20:13.579Z,70.98
2019-05-05T07:24:34.582Z,71.04
2019-05-05T07:28:55.617Z,70.12
2019-05-05T07:33:16.032Z,72.83
2019-05-05T07:37:36.563Z,71.68
2019-05-05T07:41:57.190Z,71.47
2019-05-05T07:46:17.831Z,70.65
2019-05-05T07:50:38.423Z,71.13
2019-05-05T07:54:59.188Z,71.15
2019-05-05T07:59:19.770Z,71.80
2019-05-05T08:03:40.858Z,70.62
2019-05-05T08:08:04.474Z,70.42
2019-05-05T08:12:24.928Z,69.38
2019-05-05T08:16:45.801Z,66.49
2019-05-05T08:21:07.309Z,66.64
2019-05-05T08:25:37.473Z,65.77
2019-05-05T08:29:50.850Z,66.26
2019-05-05T08:34:14.263Z,66.04
2019-05-05T08:38:34.879Z,67.91
2019-05-05T08:42:55.355Z,64.95
2019-05-05T08:47:16.607Z,64.65
2019-05-05T08:51:37.713Z,63.31
2019-05-05T08:55:59.057Z,64.20
2019-05-05T09:00:20.282Z,62.82
2019-05-05T09:04:41.702Z,62.82
2019-05-05T09:09:03.920Z,60.34
2019-05-05T09:13:25.302Z,60.90
2019-05-05T09:17:47.003Z,60.77
2019-05-05T09:22:08.763Z,60.15
2019-05-05T09:26:29.741Z,61.69
2019-05-05T09:30:50.028Z,61.84
2019-05-05T09:35:10.469Z,63.72
2019-05-05T09:39:34.721Z,62.83
2019-05-05T09:43:55.211Z,64.00
2019-05-05T09:48:15.525Z,62.98
2019-05-05T09:52:36.072Z,61.52
2019-05-05T09:56:56.319Z,61.52
2019-05-05T10:01:17.580Z,57.69
2019-05-05T10:05:38.481Z,56.64
2019-05-05T10:09:59.098Z,54.67
2019-05-05T10:14:20.010Z,56.13
2019-05-05T10:18:40.984Z,58.93
2019-05-05T10:23:01.528Z,52.93
2019-05-05T10:27:22.360Z,54.59
2019-05-05T10:31:43.775Z,54.25
2019-05-05T10:36:04.751Z,52.30
2019-05-05T10:40:25.490Z,51.78
2019-05-05T10:44:45.776Z,53.21
2019-05-05T10:49:06.943Z,52.89
2019-05-05T10:53:27.768Z,55.39
2019-05-05T10:57:49.144Z,56.33
2019-05-05T11:02:09.240Z,57.00
2019-05-05T11:06:29.728Z,54.06
2019-05-05T11:10:50.699Z,52.43
2019-05-05T11:15:14.220Z,52.43
2019-05-05T11:19:34.561Z,56.14
2019-05-05T11:23:55.297Z,56.28
2019-05-05T11:28:15.826Z,56.28
2019-05-05T11:32:36.879Z,54.96
2019-05-05T11:36:57.405Z,52.60
2019-05-05T11:41:18.033Z,54.35
2019-05-05T11:45:38.315Z,51.86
2019-05-05T11:49:58.959Z,48.94
2019-05-05T11:54:19.889Z,47.34
2019-05-05T11:58:44.053Z,52.74
2019-05-05T12:03:04.531Z,49.25
2019-05-05T12:07:25.161Z,43.98
2019-05-05T12:11:46.009Z,43.77
2019-05-05T12:16:07.111Z,46.60
2019-05-05T12:20:33.678Z,46.60
2019-05-05T12:24:54.300Z,46.91
2019-05-05T12:29:15.555Z,45.10
2019-05-05T12:33:36.180Z,44.22
2019-05-05T12:37:57.274Z,43.13
2019-05-05T12:42:19.403Z,43.83
2019-05-05T12:46:40.347Z,45.40
2019-05-05T12:51:01.761Z,44.54
2019-05-05T12:55:38.360Z,44.92
2019-05-05T12:59:46.760Z,43.93
2019-05-05T13:04:07.465Z,44.13
2019-05-05T13:08:27.986Z,41.72
2019-05-05T13:12:48.482Z,50.32
2019-05-05T13:17:09.443Z,53.62
2019-05-05T13:21:30.303Z,53.59
2019-05-05T13:25:55.944Z,52.93
2019-05-05T13:30:13.654Z,51.26
2019-05-05T13:34:34.306Z,52.37
2019-05-05T13:38:55.399Z,55.69
2019-05-05T13:43:16.382Z,54.20
2019-05-05T13:47:37.161Z,54.20
2019-05-05T13:51:57.802Z,52.15
2019-05-05T13:56:18.017Z,51.58
2019-05-05T14:00:38.739Z,51.71
2019-05-05T14:04:59.327Z,49.37
2019-05-05T14:09:19.907Z,49.83
2019-05-05T14:13:40.911Z,46.19
2019-05-05T14:18:01.282Z,46.19
2019-05-05T14:22:21.376Z,47.19
2019-05-05T14:26:42.118Z,46.60
2019-05-05T14:31:02.770Z,47.41
2019-05-05T14:35:23.902Z,44.55
2019-05-05T14:39:44.545Z,43.17
2019-05-05T14:44:04.814Z,44.46
2019-05-05T14:48:25.784Z,45.28
2019-05-05T14:52:46.223Z,46.64
2019-05-05T14:57:06.600Z,47.11
2019-05-05T15:01:27.192Z,45.64
2019-05-05T15:05:47.849Z,46.66
2019-05-05T15:10:08.494Z,48.29
2019-05-05T15:14:29.146Z,44.21
2019-05-05T15:18:49.261Z,45.06
2019-05-05T15:23:09.898Z,44.82
2019-05-05T15:27:30.562Z,47.17
2019-05-05T15:31:53.719Z,50.48
2019-05-05T15:36:14.094Z,48.96
2019-05-05T15:40:34.458Z,47.28
2019-05-05T15:44:55.359Z,47.28
2019-05-05T15:49:16.032Z,46.54
2019-05-05T15:53:36.301Z,47.42
2019-05-05T15:57:56.505Z,47.66
2019-05-05T16:02:17.334Z,46.85
2019-05-05T16:06:37.866Z,48.77
2019-05-05T16:10:58.666Z,48.77
2019-05-05T16:15:19.820Z,51.13
2019-05-05T16:19:40.260Z,50.72
2019-05-05T16:24:00.492Z,51.49
2019-05-05T16:28:20.937Z,51.49
2019-05-05T16:32:41.787Z,50.57
2019-05-05T16:37:03.859Z,49.92
2019-05-05T16:41:24.398Z,46.77
2019-05-05T16:45:44.668Z,46.77
2019-05-05T16:50:06.874Z,46.80
2019-05-05T16:54:27.604Z,44.09
2019-05-05T16:58:47.864Z,37.70
2019-05-05T17:03:08.047Z,36.65
2019-05-05T17:07:28.796Z,34.27
2019-05-05T17:11:49.604Z,36.36
2019-05-05T17:16:09.781Z,38.96
2019-05-05T17:20:30.561Z,39.81
2019-05-05T17:24:53.421Z,39.15
2019-05-05T17:29:14.599Z,37.87
2019-05-05T17:33:35.304Z,38.39
2019-05-05T17:37:55.390Z,39.26
2019-05-05T17:42:16.815Z,39.47
2019-05-05T17:46:37.218Z,40.84
2019-05-05T17:50:57.908Z,41.38
2019-05-05T17:55:18.459Z,42.43
2019-05-05T17:59:39.228Z,43.76
2019-05-05T18:03:59.810Z,43.30
2019-05-05T18:08:19.988Z,44.07
2019-05-05T18:12:40.575Z,47.52
2019-05-05T18:17:01.538Z,47.94
2019-05-05T18:21:23.624Z,45.86
2019-05-05T18:25:44.312Z,46.11
2019-05-05T18:30:05.542Z,46.06
2019-05-05T18:34:25.932Z,46.06
2019-05-05T18:38:46.831Z,47.34
2019-05-05T18:43:07.715Z,47.46
2019-05-05T18:47:28.761Z,47.33
2019-05-05T18:51:50.526Z,48.36
2019-05-05T18:56:11.682Z,48.76
2019-05-05T19:00:34.304Z,48.05
2019-05-05T19:04:55.334Z,48.05
2019-05-05T19:09:16.706Z,48.79
2019-05-05T19:13:38.431Z,47.92
2019-05-05T19:18:01.079Z,48.67
2019-05-05T19:22:21.732Z,49.23
2019-05-05T19:26:42.143Z,48.17
2019-05-05T19:31:04.298Z,49.21
2019-05-05T19:35:40.228Z,47.66
2019-05-05T19:39:51.625Z,48.62
2019-05-05T19:44:12.017Z,49.20
2019-05-05T19:48:33.977Z,49.20
2019-05-05T19:52:54.930Z,48.66
2019-05-05T19:57:15.665Z,51.13
2019-05-05T20:01:37.967Z,51.13
2019-05-05T20:05:58.631Z,50.55
2019-05-05T20:10:20.080Z,50.64
2019-05-05T20:14:43.622Z,51.26
2019-05-05T20:19:43.740Z,51.68
2019-05-05T20:24:07.367Z,50.90
2019-05-05T20:28:34.873Z,51.39
2019-05-05T20:32:57.005Z,51.46
2019-05-05T20:37:18.946Z,52.96
2019-05-05T20:41:43.609Z,53.07
2019-05-05T20:46:04.731Z,52.39
2019-05-05T20:50:26.233Z,53.37
2019-05-05T20:54:46.974Z,53.40
2019-05-05T20:59:07.604Z,53.67
2019-05-05T21:03:28.415Z,53.84
2019-05-05T21:07:49.063Z,54.38
2019-05-05T21:12:10.183Z,54.99
2019-05-05T21:16:31.288Z,55.06
2019-05-05T21:20:52.083Z,55.12
2019-05-05T21:25:14.253Z,55.34
2019-05-05T21:29:41.595Z,55.59
2019-05-05T21:33:57.564Z,56.39
2019-05-05T21:38:18.384Z,56.34
2019-05-05T21:42:39.205Z,57.23
2019-05-05T21:47:00.378Z,57.29
2019-05-05T21:51:21.381Z,57.46
2019-05-05T21:55:43.927Z,58.30
2019-05-05T22:00:04.966Z,58.25
2019-05-05T22:04:25.209Z,58.46
2019-05-05T22:08:46.494Z,58.10
2019-05-05T22:13:06.879Z,58.57
2019-05-05T22:17:27.899Z,58.84
2019-05-05T22:21:48.527Z,59.71
2019-05-05T22:26:09.826Z,60.80
2019-05-05T22:34:30.777Z,59.20
2019-05-05T22:38:51.630Z,59.56
2019-05-05T22:43:14.337Z,59.23
2019-05-05T22:47:34.795Z,58.89
2019-05-05T22:51:55.555Z,59.59
2019-05-05T22:56:15.937Z,59.64
2019-05-05T23:00:36.558Z,59.71
2019-05-05T23:04:57.012Z,59.82
2019-05-05T23:09:17.075Z,59.60
2019-05-05T23:13:37.900Z,59.26
2019-05-05T23:17:58.815Z,59.49
2019-05-05T23:22:18.835Z,59.38
2019-05-05T23:26:39.424Z,59.68
2019-05-05T23:30:59.829Z,59.35
2019-05-05T23:35:19.810Z,60.28
2019-05-05T23:39:40.329Z,60.67
2019-05-05T23:44:03.551Z,61.59
2019-05-05T23:48:24.196Z,62.33
2019-05-05T23:52:45.177Z,62.54
2019-05-05T23:57:05.608Z,62.54
